Strona główna
METAR-TAF:

METAR-TAF

Lotnisko :

Cannes, Francja

Szerokość geograficzna: 43-33N, Długość geograficzna: 006-57E, wysokość: 3 m

Aktualna obserwacja pogody

Raport powstał 21 minut temu, godzina 07:30 UTC
Wiatr 16 kt od zachodnio-południowy zachód, zmienny między południowy zachód i zachodnio-północny zachód
Temperatura 8°C
Wilgotność 71%
Ciśnienie 1001 hPa
Widzialność 10 km lub więcej
Brak chmur poniżej 1500 m i brak chmur cumulonimbus

METAR: LFMD 250730Z AUTO 25016KT 230V290 CAVOK 08/03 Q1001 BECMG 26015G25KT

czas: 08:51 (07:51 UTC)

Prognoza

Raport powstał 5 godziny i 51 minut temu, godzina 02:00 UTC
Prognoza ważna od 25 godzina 03 UTC do 26 godzina 03 UTC
Wiatr 15 kt od zachód w porywach dochodzący do 25 kt
Widzialność 10 km lub więcej
Brak chmur poniżej 1500 m i brak chmur cumulonimbus
Stopniowe zmiany
od 25 godzina 19 UTC do 25 godzina 21 UTC
Wiatr 5 kt z kierunków zmiennych

TAF: LFMD 250200Z 2503/2603 26015G25KT CAVOK BECMG 2519/2521 VRB05KT

Obserwacja i prognoza pogody dla ponad 4000 lotnisk (raport METAR i TAF).

Dostępne stacje oznaczono żółtymi i czerwonymi punktami na mapie.

Najedź kursorem aby zobaczyć nazwę stacji.

Kliknij aby zobaczyć obserwacje i prognozy pogody.

Aby zmienić mapę: kliknij na zielony przycisk z czarnym krzyżykiem, aby powiększyć; na zielony przycisk z myślnikiem, aby pomniejszyć; na zielone strzałki, aby przejść do map sąsiednich.


METAR-TAF: